Time;durP1;ratioP1;P1;durP2;ratioP2;P2;SDS_P1;SDS_P2;PMS_P1;PMS_P2;Temp;Humidity;BMP_temperature;BMP_pressure;BME280_temperature;BME280_humidity;BME280_pressure;Samples;Min_cycle;Max_cycle;Signal;HPM_P1;HPM_P2
2022/06/11 00:00:14;;;;;;;5.53;3.78;;;;;;;;;;4978112;28;20027;-76
2022/06/11 00:02:39;;;;;;;5.63;3.55;;;;;;;;;;4978159;28;20034;-76
2022/06/11 00:05:05;;;;;;;7.05;3.67;;;;;;;;;;4978094;28;20031;-75
2022/06/11 00:07:32;;;;;;;6.07;3.63;;;;;;;;;;4978303;28;20105;-76
2022/06/11 00:09:57;;;;;;;6.78;3.97;;;;;;;;;;4978124;28;20065;-76
2022/06/11 00:12:23;;;;;;;5.32;3.90;;;;;;;;;;4978159;28;20058;-76
2022/06/11 00:14:48;;;;;;;4.47;3.58;;;;;;;;;;4960560;28;20026;-77
2022/06/11 00:17:16;;;;;;;4.40;3.65;;;;;;;;;;4977889;28;20030;-76
2022/06/11 00:19:42;;;;;;;4.38;3.72;;;;;;;;;;4977810;28;20026;-76
2022/06/11 00:22:09;;;;;;;5.53;3.63;;;;;;;;;;4977562;28;20027;-76
2022/06/11 00:24:36;;;;;;;5.63;3.97;;;;;;;;;;4977920;28;20159;-76
2022/06/11 00:27:02;;;;;;;5.88;4.00;;;;;;;;;;4977879;28;20027;-77
2022/06/11 00:29:30;;;;;;;5.93;3.85;;;;;;;;;;4960329;28;20399;-75
2022/06/11 00:31:55;;;;;;;5.55;3.60;;;;;;;;;;4977379;28;20039;-76
2022/06/11 00:34:22;;;;;;;7.28;3.75;;;;;;;;;;4977489;28;20027;-75
2022/06/11 00:36:48;;;;;;;4.85;3.63;;;;;;;;;;4977669;28;20066;-75
2022/06/11 00:39:17;;;;;;;4.88;3.63;;;;;;;;;;4977365;28;20476;-75
2022/06/11 00:41:45;;;;;;;8.65;3.70;;;;;;;;;;4960029;28;20037;-77
2022/06/11 00:44:11;;;;;;;6.57;3.85;;;;;;;;;;4977283;28;20082;-75
2022/06/11 00:46:46;;;;;;;6.43;3.78;;;;;;;;;;4977621;28;20026;-76
2022/06/11 00:49:19;;;;;;;8.77;3.95;;;;;;;;;;4977068;28;20027;-76
2022/06/11 00:51:48;;;;;;;5.78;3.80;;;;;;;;;;4977574;28;20042;-76
2022/06/11 00:54:17;;;;;;;4.45;3.78;;;;;;;;;;4956395;29;20035;-75
2022/06/11 00:56:48;;;;;;;5.50;3.85;;;;;;;;;;4957857;28;20481;-75
2022/06/11 00:59:21;;;;;;;5.25;4.00;;;;;;;;;;4957949;28;20070;-75
2022/06/11 01:01:47;;;;;;;5.70;4.07;;;;;;;;;;4956715;28;20034;-76
2022/06/11 01:04:35;;;;;;;6.13;3.97;;;;;;;;;;4957571;28;20027;-77
2022/06/11 01:07:13;;;;;;;5.70;3.90;;;;;;;;;;4958123;28;20023;-76
2022/06/11 01:10:06;;;;;;;5.40;3.72;;;;;;;;;;4957785;28;20019;-76
2022/06/11 01:12:50;;;;;;;6.38;4.20;;;;;;;;;;4957277;28;20035;-76
2022/06/11 01:15:29;;;;;;;6.57;3.70;;;;;;;;;;4957368;28;20023;-76
2022/06/11 01:18:23;;;;;;;6.50;3.67;;;;;;;;;;4957457;28;20058;-76
2022/06/11 01:21:02;;;;;;;8.90;3.95;;;;;;;;;;4957570;28;20048;-76
2022/06/11 01:23:48;;;;;;;5.85;3.75;;;;;;;;;;4957334;28;20036;-75
2022/06/11 01:26:33;;;;;;;5.30;3.80;;;;;;;;;;4957216;28;20041;-76
2022/06/11 01:29:10;;;;;;;8.35;3.95;;;;;;;;;;4957771;28;20106;-76
2022/06/11 01:32:15;;;;;;;7.75;3.67;;;;;;;;;;4955867;29;20035;-76
2022/06/11 01:35:06;;;;;;;7.63;4.20;;;;;;;;;;4957467;28;20102;-76
2022/06/11 01:37:50;;;;;;;5.78;4.07;;;;;;;;;;4957866;28;20035;-76
2022/06/11 01:40:27;;;;;;;8.02;4.43;;;;;;;;;;4957266;28;20028;-77
2022/06/11 01:42:58;;;;;;;5.85;4.00;;;;;;;;;;4956892;28;20035;-76
2022/06/11 01:45:28;;;;;;;7.25;4.28;;;;;;;;;;4957220;28;20480;-77
2022/06/11 01:47:55;;;;;;;7.78;4.03;;;;;;;;;;4956990;28;20027;-76
2022/06/11 01:50:26;;;;;;;7.28;4.40;;;;;;;;;;4956961;28;20027;-77
2022/06/11 01:53:06;;;;;;;6.55;4.13;;;;;;;;;;4975080;28;20546;-76
2022/06/11 01:55:41;;;;;;;4.78;4.07;;;;;;;;;;4976162;28;20031;-77
2022/06/11 01:58:14;;;;;;;6.38;4.22;;;;;;;;;;4976011;28;20038;-78
2022/06/11 02:00:53;;;;;;;4.90;4.07;;;;;;;;;;4958511;28;20396;-77
2022/06/11 02:03:46;;;;;;;5.70;4.30;;;;;;;;;;4976118;28;20027;-76
2022/06/11 02:06:37;;;;;;;5.93;4.60;;;;;;;;;;4974534;28;20022;-76
2022/06/11 02:09:15;;;;;;;5.75;4.35;;;;;;;;;;4975945;28;20035;-75
2022/06/11 02:11:48;;;;;;;5.45;4.38;;;;;;;;;;4974626;28;20447;-76
2022/06/11 02:14:35;;;;;;;6.05;4.38;;;;;;;;;;4975751;28;20038;-77
2022/06/11 02:17:06;;;;;;;7.25;4.20;;;;;;;;;;4975988;28;20093;-75
2022/06/11 02:19:36;;;;;;;6.72;4.65;;;;;;;;;;4975605;28;20031;-76
2022/06/11 02:22:16;;;;;;;4.90;4.38;;;;;;;;;;4975436;28;20030;-76
2022/06/11 02:24:46;;;;;;;6.43;4.22;;;;;;;;;;4975730;28;20030;-76
2022/06/11 02:27:17;;;;;;;8.77;4.10;;;;;;;;;;4975670;28;20031;-75
2022/06/11 02:29:43;;;;;;;6.20;4.38;;;;;;;;;;4975603;28;20027;-75
2022/06/11 02:32:15;;;;;;;6.57;4.28;;;;;;;;;;4975518;28;20027;-76
2022/06/11 02:34:45;;;;;;;6.00;4.28;;;;;;;;;;4975584;28;20389;-77
2022/06/11 02:37:29;;;;;;;5.32;4.40;;;;;;;;;;4957839;28;20022;-75
2022/06/11 02:39:59;;;;;;;6.57;4.57;;;;;;;;;;4957764;28;20037;-75
2022/06/11 02:42:25;;;;;;;5.38;4.53;;;;;;;;;;4975286;28;20031;-75
2022/06/11 02:44:51;;;;;;;6.55;4.10;;;;;;;;;;4975063;28;20038;-76
2022/06/11 02:47:18;;;;;;;6.28;4.50;;;;;;;;;;4975016;28;20039;-76
2022/06/11 02:49:43;;;;;;;5.95;4.57;;;;;;;;;;4975014;28;20034;-76
2022/06/11 02:52:16;;;;;;;10.70;4.60;;;;;;;;;;4974682;28;20030;-77
2022/06/11 02:54:43;;;;;;;7.10;4.13;;;;;;;;;;4974921;28;20039;-75
2022/06/11 02:57:11;;;;;;;5.60;4.70;;;;;;;;;;4974971;28;20485;-76
2022/06/11 02:59:37;;;;;;;8.23;4.40;;;;;;;;;;4974840;28;20055;-76
2022/06/11 03:02:02;;;;;;;4.70;4.20;;;;;;;;;;4974903;28;20565;-76
2022/06/11 03:04:29;;;;;;;5.13;4.25;;;;;;;;;;4975245;28;20460;-76
2022/06/11 03:06:54;;;;;;;7.13;4.22;;;;;;;;;;4975018;28;20115;-76
2022/06/11 03:09:24;;;;;;;7.57;4.40;;;;;;;;;;4975306;28;20058;-76
2022/06/11 03:11:53;;;;;;;5.55;4.45;;;;;;;;;;4974906;28;20367;-76
2022/06/11 03:14:18;;;;;;;6.82;4.43;;;;;;;;;;4974855;28;20488;-76
2022/06/11 03:16:45;;;;;;;7.50;4.38;;;;;;;;;;4974718;28;20045;-76
2022/06/11 03:19:11;;;;;;;5.70;4.63;;;;;;;;;;4974904;28;20396;-76
2022/06/11 03:21:37;;;;;;;5.45;4.40;;;;;;;;;;4975237;28;20066;-75
2022/06/11 03:24:04;;;;;;;5.35;4.40;;;;;;;;;;4974002;28;20070;-76
2022/06/11 03:26:29;;;;;;;9.02;4.50;;;;;;;;;;4957095;28;20037;-77
2022/06/11 03:28:54;;;;;;;7.03;4.15;;;;;;;;;;4974328;28;20030;-75
2022/06/11 03:31:19;;;;;;;5.17;4.40;;;;;;;;;;4974571;28;20038;-77
2022/06/11 03:33:45;;;;;;;9.63;4.60;;;;;;;;;;4974401;28;20264;-77
2022/06/11 03:36:13;;;;;;;6.25;4.55;;;;;;;;;;4974386;28;20027;-75
2022/06/11 03:38:41;;;;;;;6.07;4.75;;;;;;;;;;4974673;28;20027;-76
2022/06/11 03:41:07;;;;;;;6.05;4.80;;;;;;;;;;4957052;28;20106;-76
2022/06/11 03:43:33;;;;;;;7.32;4.80;;;;;;;;;;4956929;28;20449;-76
2022/06/11 03:45:58;;;;;;;10.98;4.88;;;;;;;;;;4973903;28;20064;-76
2022/06/11 03:48:23;;;;;;;8.25;4.85;;;;;;;;;;4955472;28;20046;-76
2022/06/11 03:50:49;;;;;;;5.10;4.60;;;;;;;;;;4956832;28;20021;-75
2022/06/11 03:53:16;;;;;;;11.68;5.18;;;;;;;;;;4974081;28;20554;-77
2022/06/11 03:55:42;;;;;;;5.45;4.70;;;;;;;;;;4974318;28;20484;-77
2022/06/11 03:58:10;;;;;;;6.90;4.55;;;;;;;;;;4973997;28;20077;-76
2022/06/11 04:03:20;;;;;;;6.55;4.30;;;;;;;;;;4974065;28;20038;-76
2022/06/11 04:05:47;;;;;;;5.07;4.50;;;;;;;;;;4974279;28;20023;-76
2022/06/11 04:08:14;;;;;;;5.40;4.22;;;;;;;;;;4974239;28;20069;-77
2022/06/11 04:10:41;;;;;;;5.55;4.30;;;;;;;;;;4974154;28;20027;-76
2022/06/11 04:13:10;;;;;;;6.00;4.50;;;;;;;;;;4974032;28;20038;-74
2022/06/11 04:15:36;;;;;;;7.43;4.13;;;;;;;;;;4974673;28;20109;-74
2022/06/11 04:18:04;;;;;;;7.93;4.60;;;;;;;;;;4957623;28;20114;-77
2022/06/11 04:20:30;;;;;;;8.98;4.45;;;;;;;;;;4974358;28;20027;-74
2022/06/11 04:22:55;;;;;;;8.23;4.45;;;;;;;;;;4973963;28;20117;-74
2022/06/11 04:25:21;;;;;;;10.13;4.32;;;;;;;;;;4956628;28;20077;-76
2022/06/11 04:27:47;;;;;;;7.63;4.22;;;;;;;;;;4974118;28;20057;-75
2022/06/11 04:30:14;;;;;;;5.93;4.35;;;;;;;;;;4956649;28;20022;-75
2022/06/11 04:32:40;;;;;;;5.18;4.13;;;;;;;;;;4973884;28;20499;-76
2022/06/11 04:35:06;;;;;;;11.45;4.63;;;;;;;;;;4974134;28;20034;-75
2022/06/11 04:37:32;;;;;;;5.53;4.15;;;;;;;;;;4960219;28;20026;-75
2022/06/11 04:39:59;;;;;;;6.00;4.20;;;;;;;;;;4960107;28;20369;-76
2022/06/11 04:42:25;;;;;;;8.07;4.15;;;;;;;;;;4977831;28;20085;-77
2022/06/11 04:44:51;;;;;;;5.28;4.32;;;;;;;;;;4977385;28;20539;-76
2022/06/11 04:47:21;;;;;;;6.78;4.53;;;;;;;;;;4960099;28;20030;-77
2022/06/11 04:49:48;;;;;;;7.95;4.35;;;;;;;;;;4977723;28;20019;-77
2022/06/11 04:52:14;;;;;;;8.10;4.45;;;;;;;;;;4977045;28;20042;-76
2022/06/11 04:54:39;;;;;;;5.80;4.03;;;;;;;;;;4977551;28;20102;-76
2022/06/11 04:57:05;;;;;;;5.95;4.00;;;;;;;;;;4959762;28;20054;-76
2022/06/11 04:59:32;;;;;;;4.68;3.85;;;;;;;;;;4976948;28;20042;-75
2022/06/11 05:01:58;;;;;;;4.20;3.80;;;;;;;;;;4959757;28;20027;-77
2022/06/11 05:04:23;;;;;;;4.28;3.88;;;;;;;;;;4977528;28;20117;-76
2022/06/11 05:06:48;;;;;;;6.28;4.10;;;;;;;;;;4977065;28;20027;-76
2022/06/11 05:09:17;;;;;;;5.95;4.20;;;;;;;;;;4977324;28;20023;-75
2022/06/11 05:11:42;;;;;;;4.32;3.60;;;;;;;;;;4959498;28;20034;-76
2022/06/11 05:14:07;;;;;;;6.03;4.22;;;;;;;;;;4976859;28;20030;-75
2022/06/11 05:16:34;;;;;;;5.23;4.10;;;;;;;;;;4977122;28;20044;-75
2022/06/11 05:18:59;;;;;;;7.55;3.85;;;;;;;;;;4977010;28;20348;-75
2022/06/11 05:21:25;;;;;;;7.38;3.88;;;;;;;;;;4977064;28;20121;-75
2022/06/11 05:23:50;;;;;;;5.88;3.63;;;;;;;;;;4976871;28;20423;-76
2022/06/11 05:26:20;;;;;;;4.65;3.95;;;;;;;;;;4959347;28;20027;-76
2022/06/11 05:28:45;;;;;;;6.53;3.67;;;;;;;;;;4976868;28;20030;-76
2022/06/11 05:31:10;;;;;;;5.82;3.38;;;;;;;;;;4976697;28;20161;-76
2022/06/11 05:33:36;;;;;;;6.45;3.58;;;;;;;;;;4976622;28;20031;-76
2022/06/11 05:36:02;;;;;;;4.88;3.60;;;;;;;;;;4959066;28;20022;-77
2022/06/11 05:38:28;;;;;;;9.15;3.30;;;;;;;;;;4976370;28;20496;-76
2022/06/11 05:40:55;;;;;;;4.45;3.28;;;;;;;;;;4976275;28;20029;-76
2022/06/11 05:43:21;;;;;;;6.90;3.40;;;;;;;;;;4976094;28;20041;-76
2022/06/11 05:45:52;;;;;;;8.38;3.30;;;;;;;;;;4976464;28;20062;-76
2022/06/11 05:48:21;;;;;;;7.90;3.25;;;;;;;;;;4976122;28;20023;-76
2022/06/11 05:50:49;;;;;;;4.85;2.90;;;;;;;;;;4976433;28;20046;-76
2022/06/11 05:53:17;;;;;;;6.45;3.25;;;;;;;;;;4975997;28;20395;-75
2022/06/11 05:55:44;;;;;;;4.68;3.22;;;;;;;;;;4976269;28;20023;-76
2022/06/11 05:58:15;;;;;;;4.45;3.22;;;;;;;;;;4958755;28;20058;-76
2022/06/11 06:00:41;;;;;;;3.58;3.13;;;;;;;;;;4976175;28;20431;-76
2022/06/11 06:03:06;;;;;;;8.68;3.80;;;;;;;;;;4976003;28;20022;-76
2022/06/11 06:05:33;;;;;;;8.77;3.53;;;;;;;;;;4976359;28;20029;-75
2022/06/11 06:07:59;;;;;;;6.90;3.00;;;;;;;;;;4975840;28;20027;-76
2022/06/11 06:10:24;;;;;;;4.65;3.42;;;;;;;;;;4975783;28;20433;-76
2022/06/11 06:12:50;;;;;;;3.90;3.20;;;;;;;;;;4975881;28;20031;-76
2022/06/11 06:15:19;;;;;;;6.65;3.40;;;;;;;;;;4975626;28;20030;-77
2022/06/11 06:17:44;;;;;;;4.38;2.67;;;;;;;;;;4975668;28;20035;-77
2022/06/11 06:20:13;;;;;;;5.60;2.50;;;;;;;;;;4975534;28;20035;-77
2022/06/11 06:22:40;;;;;;;6.05;2.38;;;;;;;;;;4958155;28;20023;-75
2022/06/11 06:25:06;;;;;;;7.68;2.88;;;;;;;;;;4975414;28;20395;-77
2022/06/11 06:27:31;;;;;;;9.45;3.22;;;;;;;;;;4975308;28;20027;-76
2022/06/11 06:29:56;;;;;;;3.33;2.20;;;;;;;;;;4958137;28;20029;-76
2022/06/11 06:32:22;;;;;;;4.33;2.37;;;;;;;;;;4975654;28;20299;-77
2022/06/11 06:34:47;;;;;;;4.00;2.30;;;;;;;;;;4975235;28;20257;-76
2022/06/11 06:37:13;;;;;;;3.17;2.30;;;;;;;;;;4957936;28;20125;-75
2022/06/11 06:39:38;;;;;;;3.85;2.50;;;;;;;;;;4975399;28;20285;-77
2022/06/11 06:42:07;;;;;;;5.65;2.30;;;;;;;;;;4975284;28;20421;-77
2022/06/11 06:44:33;;;;;;;8.82;2.30;;;;;;;;;;4975034;28;20030;-76
2022/06/11 06:46:58;;;;;;;2.97;2.25;;;;;;;;;;4957597;28;20134;-76
2022/06/11 06:49:24;;;;;;;4.85;2.20;;;;;;;;;;4974862;28;20129;-77
2022/06/11 06:51:49;;;;;;;7.43;2.53;;;;;;;;;;4975181;28;20030;-77
2022/06/11 06:54:16;;;;;;;3.05;2.08;;;;;;;;;;4974769;28;20062;-75
2022/06/11 06:56:41;;;;;;;6.10;2.10;;;;;;;;;;4957591;28;20078;-75
2022/06/11 06:59:06;;;;;;;3.67;2.50;;;;;;;;;;4973854;28;20026;-76
2022/06/11 07:01:32;;;;;;;4.50;2.40;;;;;;;;;;4974966;28;20260;-76
2022/06/11 07:03:57;;;;;;;3.78;2.05;;;;;;;;;;4974821;28;20027;-76
2022/06/11 07:06:24;;;;;;;4.00;2.00;;;;;;;;;;4974957;28;20432;-76
2022/06/11 07:08:53;;;;;;;6.55;1.92;;;;;;;;;;4974848;28;20431;-76
2022/06/11 07:11:19;;;;;;;5.85;1.80;;;;;;;;;;4974587;28;20022;-76
2022/06/11 07:13:44;;;;;;;4.88;1.92;;;;;;;;;;4974412;28;20392;-76
2022/06/11 07:16:13;;;;;;;4.20;2.00;;;;;;;;;;4975043;28;20027;-77
2022/06/11 07:19:00;;;;;;;6.00;1.73;;;;;;;;;;4974465;28;20141;-77
2022/06/11 07:21:32;;;;;;;9.00;1.98;;;;;;;;;;4957216;28;20400;-77
2022/06/11 07:23:59;;;;;;;3.38;1.92;;;;;;;;;;4957178;28;20023;-76
2022/06/11 07:26:36;;;;;;;6.45;2.05;;;;;;;;;;4974380;28;20031;-77
2022/06/11 07:29:09;;;;;;;3.45;2.10;;;;;;;;;;4974684;28;20061;-76
2022/06/11 07:31:36;;;;;;;7.28;1.70;;;;;;;;;;4974527;28;20037;-76
2022/06/11 07:34:02;;;;;;;5.45;1.80;;;;;;;;;;4974430;28;20042;-75
2022/06/11 07:36:27;;;;;;;2.92;1.80;;;;;;;;;;4974639;28;20030;-76
2022/06/11 07:38:53;;;;;;;4.60;2.35;;;;;;;;;;4974296;28;20031;-76
2022/06/11 07:41:18;;;;;;;2.80;1.93;;;;;;;;;;4956829;28;20023;-77
2022/06/11 07:43:43;;;;;;;4.30;1.90;;;;;;;;;;4974461;28;20283;-77
2022/06/11 07:46:09;;;;;;;3.70;1.90;;;;;;;;;;4974623;28;20039;-77
2022/06/11 07:48:34;;;;;;;3.72;2.05;;;;;;;;;;4974751;28;20626;-77
2022/06/11 07:50:59;;;;;;;4.32;1.73;;;;;;;;;;4957634;28;20054;-77
2022/06/11 07:53:25;;;;;;;4.57;1.75;;;;;;;;;;4974648;28;20058;-77
2022/06/11 07:55:53;;;;;;;4.03;1.73;;;;;;;;;;4974798;28;20023;-78
2022/06/11 07:58:23;;;;;;;4.13;1.73;;;;;;;;;;4957245;28;20035;-77
2022/06/11 08:00:50;;;;;;;4.90;1.80;;;;;;;;;;4974575;28;20026;-77
2022/06/11 08:03:18;;;;;;;3.10;1.90;;;;;;;;;;4974709;28;20114;-76
2022/06/11 08:05:43;;;;;;;6.25;2.28;;;;;;;;;;4974505;28;20019;-77
2022/06/11 08:08:09;;;;;;;3.05;1.80;;;;;;;;;;4957462;28;20384;-76
2022/06/11 08:10:37;;;;;;;8.27;3.17;;;;;;;;;;4958156;28;20064;-77
2022/06/11 08:13:03;;;;;;;5.22;1.98;;;;;;;;;;4978555;28;20031;-77
2022/06/11 08:15:29;;;;;;;3.75;1.60;;;;;;;;;;4978223;28;20370;-77
2022/06/11 08:17:54;;;;;;;3.90;1.50;;;;;;;;;;4978189;28;20034;-77
2022/06/11 08:20:23;;;;;;;2.40;1.57;;;;;;;;;;4978434;28;20027;-76
2022/06/11 08:22:48;;;;;;;2.67;1.30;;;;;;;;;;4978319;28;20335;-76
2022/06/11 08:25:14;;;;;;;6.18;1.58;;;;;;;;;;4977987;28;20038;-76
2022/06/11 08:27:39;;;;;;;3.95;1.45;;;;;;;;;;4977692;28;20031;-76
2022/06/11 08:30:05;;;;;;;3.53;1.20;;;;;;;;;;4978150;28;20030;-77
2022/06/11 08:32:30;;;;;;;3.00;1.35;;;;;;;;;;4977579;28;20260;-77
2022/06/11 08:34:56;;;;;;;4.97;1.40;;;;;;;;;;4977817;28;20457;-76
2022/06/11 08:37:23;;;;;;;3.75;1.30;;;;;;;;;;4978436;28;20281;-76
2022/06/11 08:39:48;;;;;;;2.78;1.30;;;;;;;;;;4977637;28;20034;-77
2022/06/11 08:42:33;;;;;;;3.72;1.25;;;;;;;;;;4960332;28;20030;-75
2022/06/11 08:45:04;;;;;;;2.85;1.33;;;;;;;;;;4977732;28;20046;-76
2022/06/11 08:47:35;;;;;;;2.17;1.20;;;;;;;;;;4977692;28;20023;-77
2022/06/11 08:50:02;;;;;;;2.92;1.30;;;;;;;;;;4978010;28;20469;-75
2022/06/11 08:52:29;;;;;;;2.63;1.10;;;;;;;;;;4977027;28;20038;-76
2022/06/11 08:54:58;;;;;;;2.53;1.27;;;;;;;;;;4960223;28;20066;-76
2022/06/11 08:57:45;;;;;;;2.30;1.30;;;;;;;;;;4977504;28;20117;-75
2022/06/11 09:00:22;;;;;;;3.47;1.40;;;;;;;;;;4977687;28;20023;-76
2022/06/11 09:03:12;;;;;;;2.90;1.50;;;;;;;;;;4977101;28;20060;-76
2022/06/11 09:06:07;;;;;;;3.47;1.90;;;;;;;;;;4977952;28;20536;-77
2022/06/11 09:08:55;;;;;;;3.97;1.80;;;;;;;;;;4977750;28;20031;-76
2022/06/11 09:11:47;;;;;;;1.48;1.20;;;;;;;;;;4977143;28;20097;-77
2022/06/11 09:14:34;;;;;;;3.10;1.20;;;;;;;;;;4977350;28;20033;-76
2022/06/11 09:17:26;;;;;;;5.40;1.25;;;;;;;;;;4976964;28;20027;-76
2022/06/11 09:20:17;;;;;;;2.25;1.13;;;;;;;;;;4977305;28;20027;-77
2022/06/11 09:23:13;;;;;;;2.15;1.30;;;;;;;;;;4975828;28;20057;-77
2022/06/11 09:26:07;;;;;;;3.67;1.40;;;;;;;;;;4976917;28;20023;-74
2022/06/11 09:28:42;;;;;;;6.30;1.30;;;;;;;;;;4976749;28;20022;-76
2022/06/11 09:31:35;;;;;;;4.82;1.20;;;;;;;;;;4976416;28;20436;-77
2022/06/11 09:34:12;;;;;;;3.03;1.10;;;;;;;;;;4977495;28;20038;-76
2022/06/11 09:36:42;;;;;;;3.78;1.30;;;;;;;;;;4977264;28;20257;-76
2022/06/11 09:39:34;;;;;;;2.15;1.10;;;;;;;;;;4960128;28;20050;-77
2022/06/11 09:42:17;;;;;;;3.08;1.13;;;;;;;;;;4959339;28;20027;-76
2022/06/11 09:44:46;;;;;;;1.92;1.00;;;;;;;;;;4976732;28;20053;-75
2022/06/11 09:47:32;;;;;;;1.77;1.08;;;;;;;;;;4976575;28;20023;-77
2022/06/11 09:50:18;;;;;;;1.00;0.90;;;;;;;;;;4959078;28;20567;-77
2022/06/11 09:53:01;;;;;;;1.75;1.02;;;;;;;;;;4976557;28;20090;-77
2022/06/11 09:55:27;;;;;;;;;;;;;;;;;;4977100;28;20030;-75
2022/06/11 09:58:14;;;;;;;2.22;1.10;;;;;;;;;;4958964;28;19910;-77
2022/06/11 10:00:53;;;;;;;2.25;0.98;;;;;;;;;;4976201;28;20085;-77
2022/06/11 10:03:38;;;;;;;2.25;0.98;;;;;;;;;;4976338;28;20110;-78
2022/06/11 10:06:19;;;;;;;4.63;1.13;;;;;;;;;;4976345;28;20452;-77
2022/06/11 10:09:00;;;;;;;2.25;1.10;;;;;;;;;;4958692;28;20113;-75
2022/06/11 10:11:30;;;;;;;2.28;1.10;;;;;;;;;;4976234;28;20101;-77
2022/06/11 10:16:56;;;;;;;3.25;1.05;;;;;;;;;;4976315;28;20059;-76
2022/06/11 10:19:39;;;;;;;2.23;1.10;;;;;;;;;;4976182;28;20457;-76
2022/06/11 10:22:14;;;;;;;1.38;0.90;;;;;;;;;;4975567;28;20019;-76
2022/06/11 10:24:47;;;;;;;5.05;1.20;;;;;;;;;;4975969;28;20038;-76
2022/06/11 10:27:17;;;;;;;2.63;1.10;;;;;;;;;;4975757;28;20039;-77
2022/06/11 10:29:49;;;;;;;1.40;1.00;;;;;;;;;;4975567;28;20403;-77
2022/06/11 10:32:25;;;;;;;3.08;1.15;;;;;;;;;;4958266;28;20031;-76
2022/06/11 10:35:06;;;;;;;2.10;1.10;;;;;;;;;;4975310;28;20022;-76
2022/06/11 10:37:41;;;;;;;1.60;1.13;;;;;;;;;;4975728;28;20472;-76
2022/06/11 10:40:19;;;;;;;4.00;1.25;;;;;;;;;;4975247;28;20026;-77
2022/06/11 10:43:01;;;;;;;2.70;1.05;;;;;;;;;;4975733;28;20576;-77
2022/06/11 10:45:27;;;;;;;3.28;1.10;;;;;;;;;;4975597;28;20035;-77
2022/06/11 10:47:55;;;;;;;1.45;1.00;;;;;;;;;;4975128;28;20098;-78
2022/06/11 10:50:28;;;;;;;2.45;1.10;;;;;;;;;;4976844;28;20030;-80
2022/06/11 10:52:59;;;;;;;2.42;1.40;;;;;;;;;;4974880;28;20027;-76
2022/06/11 10:55:40;;;;;;;3.60;1.40;;;;;;;;;;4957685;28;20082;-75
2022/06/11 10:58:12;;;;;;;5.82;1.48;;;;;;;;;;4976317;28;20035;-75
2022/06/11 11:00:46;;;;;;;2.65;1.20;;;;;;;;;;4975621;28;20027;-76
2022/06/11 11:03:18;;;;;;;5.95;1.42;;;;;;;;;;4975430;28;20107;-74
2022/06/11 11:05:50;;;;;;;4.20;1.20;;;;;;;;;;4975654;28;20022;-75
2022/06/11 11:08:16;;;;;;;2.92;1.00;;;;;;;;;;4977088;28;20042;-76
2022/06/11 11:10:46;;;;;;;3.70;1.10;;;;;;;;;;4975593;28;20022;-75
2022/06/11 11:13:24;;;;;;;4.10;1.17;;;;;;;;;;4974835;28;20030;-75
2022/06/11 11:16:08;;;;;;;3.22;1.23;;;;;;;;;;4975487;28;20499;-74
2022/06/11 11:18:41;;;;;;;5.95;1.50;;;;;;;;;;4957565;28;20053;-75
2022/06/11 11:21:15;;;;;;;3.15;1.17;;;;;;;;;;4974901;28;20038;-74
2022/06/11 11:23:42;;;;;;;4.22;1.40;;;;;;;;;;4974814;28;20029;-75
2022/06/11 11:26:35;;;;;;;5.05;1.23;;;;;;;;;;4974724;28;20477;-74
2022/06/11 11:29:08;;;;;;;3.35;1.20;;;;;;;;;;4929073;28;20038;-75
2022/06/11 11:31:47;;;;;;;3.50;1.10;;;;;;;;;;4957366;28;20023;-75
2022/06/11 11:34:23;;;;;;;3.70;1.20;;;;;;;;;;4957090;28;20121;-75
2022/06/11 11:36:49;;;;;;;2.92;1.10;;;;;;;;;;4975094;28;20069;-74
2022/06/11 11:39:17;;;;;;;3.53;1.00;;;;;;;;;;4975708;28;20408;-74
2022/06/11 11:41:53;;;;;;;2.28;1.05;;;;;;;;;;4975286;28;20031;-75
2022/06/11 11:44:22;;;;;;;5.72;1.25;;;;;;;;;;4976281;28;20031;-75
2022/06/11 11:46:52;;;;;;;6.75;1.15;;;;;;;;;;4976165;28;20023;-75
2022/06/11 11:49:33;;;;;;;5.13;1.15;;;;;;;;;;4975990;28;20026;-75
2022/06/11 11:52:05;;;;;;;1.38;1.00;;;;;;;;;;4957785;28;20058;-75
2022/06/11 11:54:32;;;;;;;2.60;1.10;;;;;;;;;;4954009;29;20035;-76
2022/06/11 11:57:07;;;;;;;3.35;1.23;;;;;;;;;;4955215;28;20086;-75
2022/06/11 12:00:01;;;;;;;2.75;1.15;;;;;;;;;;4969691;28;20034;-75
2022/06/11 12:02:41;;;;;;;2.20;1.10;;;;;;;;;;4953433;29;20046;-75
2022/06/11 12:05:23;;;;;;;1.92;0.90;;;;;;;;;;4955216;28;20027;-76
2022/06/11 12:07:51;;;;;;;2.33;1.00;;;;;;;;;;4954904;28;20033;-73
2022/06/11 12:10:39;;;;;;;4.35;1.20;;;;;;;;;;4954875;28;20462;-75
2022/06/11 12:13:20;;;;;;;5.03;1.20;;;;;;;;;;4969934;28;20023;-75
2022/06/11 12:15:53;;;;;;;3.47;1.20;;;;;;;;;;4955055;28;20472;-74
2022/06/11 12:18:21;;;;;;;2.25;1.27;;;;;;;;;;4955263;28;20033;-75
2022/06/11 12:20:52;;;;;;;3.05;1.10;;;;;;;;;;4955498;28;20030;-75
2022/06/11 12:23:39;;;;;;;3.42;1.17;;;;;;;;;;4970733;28;20051;-74
2022/06/11 12:26:18;;;;;;;2.55;1.10;;;;;;;;;;4955282;29;20030;-75
2022/06/11 12:28:57;;;;;;;1.40;1.00;;;;;;;;;;4957057;28;20031;-75
2022/06/11 12:31:22;;;;;;;1.20;1.10;;;;;;;;;;4970527;28;20074;-74
2022/06/11 12:33:51;;;;;;;2.67;1.13;;;;;;;;;;4955443;28;20027;-77
2022/06/11 12:36:36;;;;;;;4.13;1.70;;;;;;;;;;4969899;28;20485;-75
2022/06/11 12:39:14;;;;;;;3.10;1.27;;;;;;;;;;4954666;28;20039;-75
2022/06/11 12:41:56;;;;;;;2.05;1.15;;;;;;;;;;4954775;28;20034;-75
2022/06/11 12:44:59;;;;;;;1.98;1.20;;;;;;;;;;4953644;29;20512;-75
2022/06/11 12:47:40;;;;;;;1.83;1.10;;;;;;;;;;4954821;29;20373;-75
2022/06/11 12:50:45;;;;;;;2.53;1.20;;;;;;;;;;4955282;28;20469;-75
2022/06/11 12:53:23;;;;;;;2.42;1.08;;;;;;;;;;4963441;28;20037;-75
2022/06/11 12:56:08;;;;;;;4.22;1.10;;;;;;;;;;4957227;28;20427;-74
2022/06/11 12:59:11;;;;;;;1.92;1.00;;;;;;;;;;4977117;28;20384;-75
2022/06/11 13:02:00;;;;;;;4.95;1.13;;;;;;;;;;4977760;28;20038;-75
2022/06/11 13:04:44;;;;;;;1.95;1.10;;;;;;;;;;4977667;28;20090;-75
2022/06/11 13:07:11;;;;;;;;;;;;;;;;;;4977923;28;20069;-74
2022/06/11 13:09:54;;;;;;;3.10;1.30;;;;;;;;;;4959794;28;19910;-75
2022/06/11 13:12:31;;;;;;;1.63;1.05;;;;;;;;;;4977167;28;20022;-75
2022/06/11 13:15:18;;;;;;;2.17;1.08;;;;;;;;;;4943659;28;20026;-74
2022/06/11 13:18:01;;;;;;;5.30;1.40;;;;;;;;;;4977008;28;20042;-75
2022/06/11 13:20:45;;;;;;;2.28;1.38;;;;;;;;;;4976871;28;20027;-75
2022/06/11 13:23:28;;;;;;;7.57;1.17;;;;;;;;;;4976938;28;20483;-76
2022/06/11 13:26:21;;;;;;;3.88;1.15;;;;;;;;;;4976772;28;20031;-75
2022/06/11 13:29:11;;;;;;;3.17;1.15;;;;;;;;;;4976909;28;20019;-75
2022/06/11 13:31:45;;;;;;;2.80;1.10;;;;;;;;;;4976555;28;20031;-75
2022/06/11 13:34:16;;;;;;;;;;;;;;;;;;4976970;28;20041;-75
2022/06/11 13:37:01;;;;;;;3.92;1.20;;;;;;;;;;4976926;28;19910;-74
2022/06/11 13:40:05;;;;;;;5.68;1.30;;;;;;;;;;4976575;28;20499;-75
2022/06/11 13:42:45;;;;;;;3.92;1.23;;;;;;;;;;4976226;28;20407;-75
2022/06/11 13:45:53;;;;;;;2.83;1.20;;;;;;;;;;4976597;28;20539;-76
2022/06/11 13:48:34;;;;;;;2.85;1.10;;;;;;;;;;4929994;28;20046;-75
2022/06/11 13:51:12;;;;;;;3.80;1.20;;;;;;;;;;4976442;28;20030;-74
2022/06/11 13:56:34;;;;;;;3.65;1.30;;;;;;;;;;4976182;28;20054;-75
2022/06/11 13:59:12;;;;;;;2.63;1.17;;;;;;;;;;4976091;28;20073;-75
2022/06/11 14:01:56;;;;;;;4.63;1.50;;;;;;;;;;4975925;28;20031;-75
2022/06/11 14:04:33;;;;;;;4.03;1.30;;;;;;;;;;4976591;28;20114;-76
2022/06/11 14:07:04;;;;;;;2.15;1.20;;;;;;;;;;4976148;28;20066;-75
2022/06/11 14:12:40;;;;;;;2.67;1.10;;;;;;;;;;4975794;28;20551;-75
2022/06/11 14:15:46;;;;;;;3.65;1.33;;;;;;;;;;4975926;28;20023;-74
2022/06/11 14:18:21;;;;;;;3.45;1.10;;;;;;;;;;4958602;28;20078;-75
2022/06/11 14:20:51;;;;;;;2.33;1.10;;;;;;;;;;4958305;28;20053;-75
2022/06/11 14:23:16;;;;;;;4.72;1.20;;;;;;;;;;4976169;28;20415;-75
2022/06/11 14:26:19;;;;;;;3.77;1.23;;;;;;;;;;4975432;28;20118;-76
2022/06/11 14:28:47;;;;;;;4.30;1.10;;;;;;;;;;4965806;28;20038;-76
2022/06/11 14:31:15;;;;;;;5.82;1.30;;;;;;;;;;4975371;28;20014;-75
2022/06/11 14:34:08;;;;;;;4.10;1.20;;;;;;;;;;4975258;28;20027;-76
2022/06/11 14:36:34;;;;;;;3.40;1.40;;;;;;;;;;4975641;28;20070;-75
2022/06/11 14:39:03;;;;;;;3.97;1.20;;;;;;;;;;4957888;28;20031;-74
2022/06/11 14:41:31;;;;;;;4.18;1.17;;;;;;;;;;4957444;28;20070;-75
2022/06/11 14:44:01;;;;;;;6.18;0.95;;;;;;;;;;4957768;28;20026;-76
2022/06/11 14:46:33;;;;;;;4.95;1.20;;;;;;;;;;4957752;28;20076;-76
2022/06/11 14:49:23;;;;;;;2.55;1.10;;;;;;;;;;4974978;28;20038;-76
2022/06/11 14:52:15;;;;;;;2.85;1.13;;;;;;;;;;4975009;28;20023;-74
2022/06/11 14:55:17;;;;;;;1.75;1.10;;;;;;;;;;4974936;28;20081;-73
2022/06/11 14:58:06;;;;;;;4.57;1.10;;;;;;;;;;4975393;28;20022;-75
2022/06/11 15:00:59;;;;;;;1.90;1.17;;;;;;;;;;4975504;28;20350;-74
2022/06/11 15:03:49;;;;;;;1.70;1.10;;;;;;;;;;4975456;28;20034;-75
2022/06/11 15:06:42;;;;;;;3.22;1.20;;;;;;;;;;4974985;28;20038;-76
2022/06/11 15:09:58;;;;;;;6.43;1.30;;;;;;;;;;4974655;28;20396;-77
2022/06/11 15:13:01;;;;;;;2.88;1.10;;;;;;;;;;4957030;28;20403;-76
2022/06/11 15:15:41;;;;;;;2.33;1.10;;;;;;;;;;4974555;28;20027;-77
2022/06/11 15:18:26;;;;;;;5.95;1.13;;;;;;;;;;4955728;28;20026;-77
2022/06/11 15:21:01;;;;;;;2.35;1.10;;;;;;;;;;4973688;28;20062;-77
2022/06/11 15:23:37;;;;;;;4.63;1.10;;;;;;;;;;4974488;28;20030;-76
2022/06/11 15:26:06;;;;;;;3.83;1.02;;;;;;;;;;4974456;28;20082;-76
2022/06/11 15:28:32;;;;;;;2.10;1.13;;;;;;;;;;4974420;28;20026;-77
2022/06/11 15:31:05;;;;;;;2.63;1.00;;;;;;;;;;4974836;28;20403;-77